Nearby METAR Reports

 

KSJC - San Jose, California, USA
Distance from station: NE 9mi, 14km
Updated: Fri, 28-Jan-2022 3:53am CST
Clear
Clear
 Wind from calm
Wind: Calm
Temperature: 43°F , 6°C
Dew Point: 36°F , 2°C
Humidity: 76%
Barometer: 30.28 inHg , 1025.4 hPa
Clouds: Clear
Visibility: 10 miles , 16 km
2022/01/28 09:53 KSJC 280953Z AUTO 00000KT 10SM CLR 06/02 A3028 RMK AO2 SLP252 T00610022
KNUQ - Moffett Nas/Mtn, California, USA
Distance from station: N 9mi, 14km
Updated: Fri, 28-Jan-2022 4:35am CST
Clear
Clear
 Wind from calm
Wind: Calm
Temperature: 43°F , 6°C
Dew Point: 36°F , 2°C
Humidity: 76%
Barometer: 30.28 inHg , 1025.4 hPa
Clouds: Clear
Visibility: 10 miles , 16 km
2022/01/28 10:35 KNUQ 281035Z AUTO 00000KT 10SM CLR 06/02 A3028 RMK AO2
 
KPAO - Palo Alto, California, USA
Distance from station: NNW 14mi, 23km
Updated: Thu, 27-Jan-2022 10:47pm CST
NOT Current
Clear
Clear
 Wind from calm
Wind: Calm
Temperature: 46°F , 8°C
Dew Point: 37°F , 3°C
Humidity: 71%
Barometer: 30.25 inHg , 1024.4 hPa
Clouds: Clear
Visibility: 10 miles , 16 km
2022/01/28 04:47 KPAO 280447Z 00000KT 10SM SKC 08/03 A3025 RMK LAST
KRHV - San Jose/Reid, California, USA
Distance from station: ENE 12mi, 19km
Updated: Thu, 27-Jan-2022 11:47pm CST
NOT Current
Clear
Clear
 Wind from calm
Wind: Calm
Temperature: 48°F , 9°C
Dew Point: 37°F , 3°C
Humidity: 66%
Barometer: 30.26 inHg , 1024.7 hPa
Clouds: Clear
Visibility: 10 miles , 16 km
2022/01/28 05:47 KRHV 280547Z 00000KT 10SM SKC 09/03 A3026 RMK LAST
 
KOAK - Oakland, California, USA
Distance from station: NNW 31mi, 50km
Updated: Fri, 28-Jan-2022 3:53am CST
Partly cloudy
Partly cloudy
 Wind from ENE
Wind: ENE 3 mph , 6 km/h
Temperature: 43°F , 6°C
Dew Point: 32°F , 0°C
Humidity: 66%
Barometer: 30.29 inHg , 1025.7 hPa
Clouds: Partly cloudy
Visibility: 10 miles , 16 km
Cloud details: Few Clouds 300 ft
Partly cloudy 20000 ft
2022/01/28 09:53 KOAK 280953Z 07003KT 10SM FEW003 SCT200 06/00 A3029 RMK AO2 SLP255 T00610000
KSQL - San Carlos Airpo, California, USA
Distance from station: NW 21mi, 34km
Updated: Fri, 28-Jan-2022 4:35am CST
Clear
Clear
 Wind from calm
Wind: Calm
Temperature: 43°F , 6°C
Dew Point: 36°F , 2°C
Humidity: 76%
Barometer: 30.29 inHg , 1025.7 hPa
Clouds: Clear
Visibility: 10 miles , 16 km
2022/01/28 10:35 KSQL 281035Z AUTO 00000KT 10SM CLR 06/02 A3029 RMK AO2
 
KSFO - San Francisco, California, USA
Distance from station: NW 30mi, 49km
Updated: Fri, 28-Jan-2022 3:56am CST
Few Clouds
Few Clouds
 Wind from calm
Wind: Calm
Temperature: 46°F , 8°C
Dew Point: 36°F , 2°C
Humidity: 66%
Barometer: 30.28 inHg , 1025.4 hPa
Clouds: Few Clouds
Visibility: 10 miles , 16 km
Cloud details: Few Clouds 600 ft
2022/01/28 09:56 KSFO 280956Z 00000KT 10SM FEW006 08/02 A3028 RMK AO2 SLP252 T00830017
KE16 - San Martin, California, USA
Distance from station: ESE 27mi, 43km
Updated: Fri, 28-Jan-2022 4:30am CST
Clear
Clear
 Wind from ESE
Wind: ESE 3 mph , 6 km/h
Temperature: 37°F , 3°C
Dew Point: 34°F , 1°C
Humidity: 87%
Barometer: 30.31 inHg , 1026.4 hPa
Clouds: Clear
Visibility: 10 miles , 16 km
2022/01/28 10:30 KE16 281030Z AUTO 12003KT 10SM CLR 03/01 A3031 RMK AO2
 
KWVI - Watsonville, California, USA
Distance from station: SSE 27mi, 44km
Updated: Fri, 28-Jan-2022 3:53am CST
Clear
Clear
 Wind from NW
Wind: NW 3 mph , 6 km/h
Temperature: 45°F , 7°C
Dew Point: 34°F , 1°C
Humidity: 66%
Barometer: 30.27 inHg , 1025.1 hPa
Clouds: Clear
Visibility: 10 miles , 16 km
2022/01/28 09:53 KWVI 280953Z AUTO 31003KT 10SM CLR 07/01 A3027 RMK AO2 SLP250 T00720011
KHAF - Half Moon Bay, California, USA
Distance from station: WNW 31mi, 50km
Updated: Fri, 28-Jan-2022 4:35am CST
Clear
Clear
 Wind from calm
Wind: Calm
Temperature: 43°F , 6°C
Dew Point: 37°F , 3°C
Humidity: 81%
Barometer: 30.24 inHg , 1024 hPa
Clouds: Clear
Visibility: 10 miles , 16 km
2022/01/28 10:35 KHAF 281035Z AUTO 00000KT 10SM CLR 06/03 A3024 RMK AO2
 
KHWD - Hayward, California, USA
Distance from station: N 28mi, 44km
Updated: Fri, 28-Jan-2022 3:54am CST
Clear
Clear
 Wind from calm
Wind: Calm
Temperature: 45°F , 7°C
Dew Point: 34°F , 1°C
Humidity: 66%
Barometer: 30.28 inHg , 1025.4 hPa
Clouds: Clear
Visibility: 10 miles , 16 km
2022/01/28 09:54 KHWD 280954Z 00000KT 10SM CLR 07/01 A3028 RMK AO2 SLP262 T00720006
KLVK - Livermore, California, USA
Distance from station: NNE 31mi, 51km
Updated: Fri, 28-Jan-2022 3:53am CST
Clear
Clear
 Wind from calm
Wind: Calm
Temperature: 37°F , 3°C
Dew Point: 30°F , -1°C
Humidity: 75%
Barometer: 30.29 inHg , 1025.7 hPa
Clouds: Clear
Visibility: 10 miles , 16 km
2022/01/28 09:53 KLVK 280953Z AUTO 00000KT 10SM CLR 03/M01 A3029 RMK AO2 SLP257 T00281011